Time;durP1;ratioP1;P1;durP2;ratioP2;P2;SDS_P1;SDS_P2;PMS_P1;PMS_P2;Temp;Humidity;BMP_temperature;BMP_pressure;BME280_temperature;BME280_humidity;BME280_pressure;Samples;Min_cycle;Max_cycle;Signal;HPM_P1;HPM_P2
2021/08/20 00:00:22;;;;;;;8.75;7.00;;;17.10;83.00;;;;;;4988954;28;20122;-74
2021/08/20 00:02:47;;;;;;;8.35;6.97;;;17.10;83.00;;;;;;4973387;28;20385;-75
2021/08/20 00:05:13;;;;;;;7.55;6.30;;;17.20;83.00;;;;;;4973289;28;20030;-74
2021/08/20 00:07:39;;;;;;;9.82;6.85;;;17.20;82.90;;;;;;4972582;28;20027;-74
2021/08/20 00:10:06;;;;;;;6.07;5.47;;;17.20;82.90;;;;;;4973026;28;20094;-75
2021/08/20 00:12:31;;;;;;;9.07;6.78;;;17.20;82.90;;;;;;4987050;28;20109;-74
2021/08/20 00:14:57;;;;;;;7.15;6.40;;;17.20;82.90;;;;;;4981337;28;20455;-75
2021/08/20 00:17:24;;;;;;;8.23;7.35;;;17.20;83.00;;;;;;4978261;28;20031;-75
2021/08/20 00:19:50;;;;;;;8.00;7.20;;;17.20;82.90;;;;;;4992037;28;20038;-75
2021/08/20 00:22:15;;;;;;;6.95;6.20;;;17.10;83.00;;;;;;4980790;28;20498;-75
2021/08/20 00:24:41;;;;;;;7.18;6.43;;;17.10;83.00;;;;;;4981533;28;20029;-75
2021/08/20 00:27:06;;;;;;;7.85;6.78;;;17.00;83.00;;;;;;4990710;28;20408;-75
2021/08/20 00:29:32;;;;;;;7.72;6.25;;;17.00;83.00;;;;;;4992342;28;20031;-76
2021/08/20 00:31:58;;;;;;;8.07;7.22;;;17.00;83.10;;;;;;4992212;28;20026;-75
2021/08/20 00:34:23;;;;;;;8.30;6.28;;;16.90;83.00;;;;;;4986054;28;20031;-75
2021/08/20 00:36:49;;;;;;;8.02;5.85;;;17.00;83.10;;;;;;4972445;28;20042;-75
2021/08/20 00:39:14;;;;;;;7.78;6.80;;;16.90;83.10;;;;;;4971586;28;20070;-75
2021/08/20 00:41:40;;;;;;;9.85;6.90;;;16.90;83.10;;;;;;4974911;28;20117;-74
2021/08/20 00:44:06;;;;;;;6.90;5.95;;;16.90;83.10;;;;;;4988247;28;20457;-75
2021/08/20 00:46:32;;;;;;;9.23;7.50;;;16.90;83.20;;;;;;4972136;28;20052;-75
2021/08/20 00:48:57;;;;;;;9.25;7.75;;;16.80;83.20;;;;;;4972501;28;20453;-75
2021/08/20 00:51:25;;;;;;;10.32;8.32;;;16.80;83.20;;;;;;4970877;28;20035;-75
2021/08/20 00:53:52;;;;;;;8.02;7.03;;;16.80;83.20;;;;;;4973659;28;20042;-75
2021/08/20 00:56:19;;;;;;;8.15;6.75;;;16.70;83.10;;;;;;4991108;28;20030;-75
2021/08/20 00:58:47;;;;;;;10.80;8.23;;;16.70;83.20;;;;;;4991485;28;20072;-75
2021/08/20 01:01:13;;;;;;;8.52;7.13;;;16.70;83.20;;;;;;4991556;28;20038;-75
2021/08/20 01:03:38;;;;;;;9.18;7.05;;;16.60;83.10;;;;;;4991526;28;20027;-75
2021/08/20 01:06:06;;;;;;;9.65;7.53;;;16.60;83.10;;;;;;4972379;28;20031;-75
2021/08/20 01:08:32;;;;;;;7.68;6.40;;;16.60;83.10;;;;;;4972234;28;20042;-75
2021/08/20 01:10:59;;;;;;;9.38;7.22;;;16.60;83.10;;;;;;4972238;28;20031;-76
2021/08/20 01:13:29;;;;;;;10.30;8.18;;;16.60;83.10;;;;;;4972308;28;20018;-75
2021/08/20 01:15:55;;;;;;;10.27;8.93;;;16.60;83.10;;;;;;4972458;28;20057;-75
2021/08/20 01:18:25;;;;;;;10.30;7.93;;;16.60;83.10;;;;;;4972310;28;20027;-76
2021/08/20 01:20:52;;;;;;;9.60;7.97;;;16.50;83.10;;;;;;4972144;28;20037;-76
2021/08/20 01:23:18;;;;;;;9.25;7.78;;;16.50;83.10;;;;;;4972520;28;20034;-75
2021/08/20 01:25:47;;;;;;;9.25;6.57;;;16.50;83.10;;;;;;4987806;28;20030;-75
2021/08/20 01:28:13;;;;;;;6.97;6.28;;;16.50;83.10;;;;;;4991403;28;20031;-76
2021/08/20 01:30:39;;;;;;;7.15;6.35;;;16.50;83.10;;;;;;4991600;28;20109;-76
2021/08/20 01:33:05;;;;;;;7.68;6.00;;;16.50;83.10;;;;;;4976346;28;20046;-76
2021/08/20 01:35:33;;;;;;;8.00;6.63;;;16.50;83.20;;;;;;4989790;28;20058;-75
2021/08/20 01:37:59;;;;;;;6.60;5.90;;;16.50;83.20;;;;;;4974527;28;20027;-75
2021/08/20 01:40:24;;;;;;;7.45;6.15;;;16.60;83.30;;;;;;4975303;28;20474;-75
2021/08/20 01:42:50;;;;;;;7.82;5.78;;;16.60;83.20;;;;;;4975798;28;20030;-75
2021/08/20 01:45:15;;;;;;;6.70;4.90;;;16.60;83.20;;;;;;4986117;28;20022;-75
2021/08/20 01:47:41;;;;;;;9.57;7.55;;;16.60;83.10;;;;;;4993060;28;20026;-75
2021/08/20 01:50:07;;;;;;;8.77;6.50;;;16.60;83.10;;;;;;4994894;28;20073;-75
2021/08/20 01:52:34;;;;;;;9.15;6.80;;;16.60;83.10;;;;;;4994736;28;20027;-75
2021/08/20 01:55:00;;;;;;;8.75;7.45;;;16.50;83.10;;;;;;4984395;28;20058;-75
2021/08/20 01:57:25;;;;;;;10.38;7.72;;;16.50;83.10;;;;;;4980199;28;20109;-75
2021/08/20 01:59:51;;;;;;;7.63;6.25;;;16.40;83.00;;;;;;4994692;28;20113;-75
2021/08/20 02:02:16;;;;;;;8.20;6.88;;;16.40;83.00;;;;;;4994627;28;20133;-75
2021/08/20 02:04:42;;;;;;;10.45;8.15;;;16.40;83.10;;;;;;4986860;28;20018;-75
2021/08/20 02:07:07;;;;;;;9.20;7.72;;;16.40;83.00;;;;;;4974620;28;20027;-75
2021/08/20 02:09:33;;;;;;;8.30;6.63;;;16.30;83.10;;;;;;4974933;28;20027;-75
2021/08/20 02:11:59;;;;;;;10.73;8.30;;;16.30;83.10;;;;;;4974729;28;20023;-75
2021/08/20 02:14:24;;;;;;;11.02;8.23;;;16.20;83.10;;;;;;4979851;28;20688;-75
2021/08/20 02:16:49;;;;;;;11.45;9.00;;;16.20;83.20;;;;;;4993703;28;20029;-75
2021/08/20 02:19:15;;;;;;;10.48;8.68;;;16.10;83.20;;;;;;4993878;28;20030;-76
2021/08/20 02:21:41;;;;;;;11.63;8.45;;;16.10;83.20;;;;;;4993126;28;20417;-75
2021/08/20 02:24:07;;;;;;;8.40;6.57;;;16.10;83.20;;;;;;4990021;28;20493;-76
2021/08/20 02:26:32;;;;;;;8.85;7.53;;;16.20;83.30;;;;;;4974660;28;20050;-76
2021/08/20 02:28:58;;;;;;;12.13;9.60;;;16.20;83.30;;;;;;4974865;28;20018;-75
2021/08/20 02:31:23;;;;;;;10.77;8.57;;;16.20;83.30;;;;;;4973240;28;20027;-76
2021/08/20 02:33:49;;;;;;;9.70;8.18;;;16.20;83.30;;;;;;4974702;28;20045;-75
2021/08/20 02:36:15;;;;;;;8.90;7.22;;;16.20;83.30;;;;;;4985733;28;20046;-75
2021/08/20 02:38:42;;;;;;;12.70;8.80;;;16.20;83.30;;;;;;4993347;28;20057;-76
2021/08/20 02:41:07;;;;;;;10.50;8.95;;;16.20;83.30;;;;;;4993703;28;20464;-75
2021/08/20 02:43:33;;;;;;;10.23;8.80;;;16.20;83.30;;;;;;4993906;28;20050;-75
2021/08/20 02:45:58;;;;;;;9.45;8.07;;;16.20;83.30;;;;;;4976164;28;20038;-75
2021/08/20 02:48:24;;;;;;;11.52;9.40;;;16.20;83.30;;;;;;4992103;28;20061;-75
2021/08/20 02:50:50;;;;;;;13.02;10.05;;;16.20;83.30;;;;;;4992453;28;20023;-75
2021/08/20 02:53:16;;;;;;;8.45;7.22;;;16.20;83.50;;;;;;4975243;28;20034;-74
2021/08/20 02:55:41;;;;;;;12.30;9.93;;;16.20;83.50;;;;;;4975162;28;20035;-75
2021/08/20 02:58:07;;;;;;;9.77;8.15;;;16.20;83.40;;;;;;4988615;28;20026;-76
2021/08/20 03:00:33;;;;;;;10.60;8.77;;;16.20;83.50;;;;;;4993283;28;20045;-74
2021/08/20 03:02:59;;;;;;;11.68;8.05;;;16.30;83.50;;;;;;4993432;28;20184;-75
2021/08/20 03:05:25;;;;;;;8.20;6.78;;;16.30;83.40;;;;;;4981790;28;20493;-74
2021/08/20 03:07:50;;;;;;;11.18;8.82;;;16.30;83.40;;;;;;4985358;28;20093;-74
2021/08/20 03:10:16;;;;;;;10.15;8.50;;;16.30;83.40;;;;;;4993144;28;20033;-75
2021/08/20 03:12:41;;;;;;;10.75;9.40;;;16.30;83.40;;;;;;4993148;28;20029;-75
2021/08/20 03:15:08;;;;;;;13.00;10.60;;;16.30;83.40;;;;;;4991520;28;20045;-75
2021/08/20 03:17:33;;;;;;;9.35;7.57;;;16.30;83.40;;;;;;4992367;28;20036;-75
2021/08/20 03:19:59;;;;;;;12.35;9.32;;;16.30;83.50;;;;;;4992510;28;20026;-74
2021/08/20 03:22:25;;;;;;;8.73;7.55;;;16.30;83.40;;;;;;4991661;28;20037;-74
2021/08/20 03:24:50;;;;;;;10.98;8.27;;;16.30;83.50;;;;;;4992682;28;20469;-75
2021/08/20 03:27:16;;;;;;;9.45;7.80;;;16.30;83.50;;;;;;4985497;28;20033;-76
2021/08/20 03:29:41;;;;;;;8.68;7.60;;;16.40;83.50;;;;;;4973562;28;20466;-76
2021/08/20 03:32:07;;;;;;;13.55;10.75;;;16.40;83.50;;;;;;4973564;28;20109;-75
2021/08/20 03:34:33;;;;;;;10.30;7.70;;;16.40;83.50;;;;;;4975335;28;20022;-75
2021/08/20 03:36:58;;;;;;;9.25;7.63;;;16.40;83.50;;;;;;4984849;28;20666;-75
2021/08/20 03:39:24;;;;;;;13.10;9.80;;;16.40;83.50;;;;;;4973024;28;20122;-75
2021/08/20 03:41:50;;;;;;;11.30;9.50;;;16.40;83.50;;;;;;4973096;28;20027;-74
2021/08/20 03:44:15;;;;;;;9.27;7.38;;;16.40;83.60;;;;;;4971709;28;20115;-74
2021/08/20 03:46:41;;;;;;;9.65;8.18;;;16.50;83.60;;;;;;4977479;28;20117;-74
2021/08/20 03:49:06;;;;;;;10.68;9.00;;;16.50;83.60;;;;;;4991388;28;20130;-74
2021/08/20 03:51:32;;;;;;;11.80;9.18;;;16.50;83.60;;;;;;4992576;28;20487;-74
2021/08/20 03:53:58;;;;;;;12.10;8.48;;;16.50;83.70;;;;;;4989068;28;20118;-75
2021/08/20 03:56:24;;;;;;;12.27;9.07;;;16.50;83.70;;;;;;4974123;28;20836;-74
2021/08/20 03:58:49;;;;;;;14.15;10.23;;;16.50;83.80;;;;;;4992268;28;20030;-75
2021/08/20 04:01:15;;;;;;;14.85;10.07;;;16.50;83.80;;;;;;4990904;28;20490;-75
2021/08/20 04:03:40;;;;;;;12.93;9.75;;;16.50;83.90;;;;;;4992122;28;20508;-74
2021/08/20 04:06:10;;;;;;;14.55;11.63;;;16.50;83.90;;;;;;4972522;28;20031;-75
2021/08/20 04:08:35;;;;;;;16.17;11.65;;;16.50;83.90;;;;;;4992164;28;20501;-75
2021/08/20 04:11:01;;;;;;;16.88;12.88;;;16.50;83.90;;;;;;4991418;28;20072;-75
2021/08/20 04:13:27;;;;;;;17.83;12.90;;;16.50;84.10;;;;;;4990410;28;20105;-75
2021/08/20 04:15:52;;;;;;;13.52;10.25;;;16.40;84.40;;;;;;4991372;28;20426;-75
2021/08/20 04:18:18;;;;;;;13.38;9.90;;;16.40;84.40;;;;;;4992110;28;20042;-76
2021/08/20 04:20:44;;;;;;;13.00;9.48;;;16.50;84.50;;;;;;4992078;28;20026;-75
2021/08/20 04:23:09;;;;;;;18.58;14.43;;;16.50;84.40;;;;;;4974843;28;20030;-75
2021/08/20 04:25:35;;;;;;;15.55;11.60;;;16.50;84.60;;;;;;4987257;28;20027;-75
2021/08/20 04:28:01;;;;;;;12.85;10.57;;;16.50;84.70;;;;;;4991613;28;20041;-75
2021/08/20 04:30:30;;;;;;;16.40;11.95;;;16.50;84.80;;;;;;4990753;28;20022;-75
2021/08/20 04:32:56;;;;;;;16.25;11.10;;;16.50;84.80;;;;;;4991786;28;20030;-76
2021/08/20 04:35:26;;;;;;;16.63;12.00;;;16.50;84.90;;;;;;4989945;28;20027;-76
2021/08/20 04:37:52;;;;;;;16.05;12.18;;;16.50;84.80;;;;;;4991468;28;20026;-76
2021/08/20 04:40:18;;;;;;;15.73;12.02;;;16.50;85.00;;;;;;4990316;28;20022;-76
2021/08/20 04:42:43;;;;;;;16.20;11.07;;;16.50;85.10;;;;;;4991771;28;20505;-75
2021/08/20 04:45:10;;;;;;;19.52;13.68;;;16.50;85.10;;;;;;4990595;28;20073;-76
2021/08/20 04:47:35;;;;;;;17.65;12.68;;;16.50;85.20;;;;;;4990268;28;20029;-76
2021/08/20 04:50:04;;;;;;;13.52;10.18;;;16.50;85.30;;;;;;4992328;28;20472;-76
2021/08/20 04:52:29;;;;;;;18.25;13.43;;;16.50;85.40;;;;;;4991518;28;20042;-76
2021/08/20 04:54:55;;;;;;;17.65;12.80;;;16.50;85.40;;;;;;4979000;28;20031;-77
2021/08/20 04:57:20;;;;;;;13.20;9.60;;;16.50;85.60;;;;;;4970658;28;20490;-76
2021/08/20 04:59:46;;;;;;;17.83;13.90;;;16.50;85.60;;;;;;4972683;28;20055;-76
2021/08/20 05:02:11;;;;;;;15.48;10.98;;;16.50;85.60;;;;;;4973590;28;20093;-75
2021/08/20 05:04:37;;;;;;;13.52;9.73;;;16.50;85.50;;;;;;4971024;28;20079;-76
2021/08/20 05:07:03;;;;;;;13.90;9.82;;;16.60;85.50;;;;;;4986424;28;20033;-75
2021/08/20 05:09:31;;;;;;;18.30;13.45;;;16.60;85.40;;;;;;4995857;28;20025;-76
2021/08/20 05:11:56;;;;;;;11.93;9.05;;;16.60;85.30;;;;;;4983489;28;20486;-75
2021/08/20 05:14:22;;;;;;;12.63;10.25;;;16.60;85.50;;;;;;4976125;28;20023;-77
2021/08/20 05:16:48;;;;;;;12.20;7.95;;;16.60;85.40;;;;;;4987309;28;20473;-77
2021/08/20 05:19:17;;;;;;;13.70;10.13;;;16.70;85.40;;;;;;4994182;28;20030;-76
2021/08/20 05:21:42;;;;;;;14.13;10.15;;;16.70;85.30;;;;;;4983822;28;20829;-76
2021/08/20 05:24:08;;;;;;;12.85;10.05;;;16.70;85.20;;;;;;4976122;28;20023;-76
2021/08/20 05:26:33;;;;;;;13.95;10.43;;;16.70;85.20;;;;;;4975273;28;20041;-76
2021/08/20 05:28:59;;;;;;;15.48;11.27;;;16.70;85.20;;;;;;4976025;28;20062;-76
2021/08/20 05:31:25;;;;;;;16.73;10.90;;;16.70;85.30;;;;;;4983191;28;20022;-75
2021/08/20 05:33:50;;;;;;;14.95;11.25;;;16.70;85.30;;;;;;4995088;28;20441;-76
2021/08/20 05:36:16;;;;;;;17.13;11.88;;;16.70;85.30;;;;;;4992971;28;20066;-75
2021/08/20 05:38:41;;;;;;;17.85;13.23;;;16.70;85.40;;;;;;4993759;28;20410;-75
2021/08/20 05:41:07;;;;;;;16.85;11.45;;;16.70;85.50;;;;;;4981339;28;20038;-75
2021/08/20 05:43:33;;;;;;;11.60;8.75;;;16.70;85.70;;;;;;4994959;28;20101;-76
2021/08/20 05:45:59;;;;;;;12.88;9.43;;;16.70;85.60;;;;;;4990298;28;20505;-75
2021/08/20 05:48:24;;;;;;;12.80;9.05;;;16.70;85.60;;;;;;4979839;28;20026;-75
2021/08/20 05:50:50;;;;;;;11.38;8.30;;;16.80;85.60;;;;;;4990151;28;20023;-75
2021/08/20 05:53:15;;;;;;;14.95;10.25;;;16.80;85.50;;;;;;4994500;28;20045;-75
2021/08/20 05:55:41;;;;;;;11.48;8.23;;;16.80;85.50;;;;;;4979694;28;20022;-75
2021/08/20 05:58:07;;;;;;;14.63;10.45;;;16.80;85.50;;;;;;4982123;28;20101;-75
2021/08/20 06:00:33;;;;;;;18.80;12.68;;;16.90;85.50;;;;;;4989851;28;20031;-75
2021/08/20 06:02:59;;;;;;;13.80;10.15;;;16.80;85.50;;;;;;4982652;28;20121;-75
2021/08/20 06:05:24;;;;;;;12.45;9.32;;;16.90;85.50;;;;;;4977584;28;20264;-75
2021/08/20 06:07:50;;;;;;;17.35;13.07;;;16.90;85.50;;;;;;4992726;28;20081;-75
2021/08/20 06:10:18;;;;;;;18.30;12.40;;;16.90;85.50;;;;;;4987721;28;20029;-75
2021/08/20 06:12:43;;;;;;;13.48;8.70;;;16.90;85.50;;;;;;4987065;28;20023;-75
2021/08/20 06:15:09;;;;;;;18.83;12.63;;;17.00;85.50;;;;;;4985366;28;20044;-75
2021/08/20 06:17:35;;;;;;;13.73;9.80;;;17.00;85.50;;;;;;4990372;28;20027;-75
2021/08/20 06:20:01;;;;;;;13.38;9.82;;;17.00;85.50;;;;;;4987299;28;20057;-75
2021/08/20 06:22:27;;;;;;;16.38;10.98;;;17.00;85.50;;;;;;5002654;28;20034;-75
2021/08/20 06:24:52;;;;;;;13.18;9.82;;;17.10;85.60;;;;;;4984639;28;20026;-74
2021/08/20 06:27:18;;;;;;;15.32;10.85;;;17.10;85.50;;;;;;4986783;28;20026;-75
2021/08/20 06:29:43;;;;;;;16.92;11.18;;;17.10;85.50;;;;;;4985996;28;20565;-75
2021/08/20 06:32:09;;;;;;;12.75;8.52;;;17.20;85.50;;;;;;4986726;28;20551;-75
2021/08/20 06:34:34;;;;;;;13.30;9.60;;;17.20;85.40;;;;;;4988181;28;20470;-75
2021/08/20 06:37:00;;;;;;;10.52;7.57;;;17.30;85.30;;;;;;4986422;28;20026;-75
2021/08/20 06:39:25;;;;;;;10.52;7.80;;;17.30;85.20;;;;;;4991090;28;20506;-76
2021/08/20 06:41:51;;;;;;;7.93;5.90;;;17.50;85.20;;;;;;4984690;28;20042;-75
2021/08/20 06:44:17;;;;;;;11.57;8.23;;;17.60;84.70;;;;;;4988615;28;20022;-75
2021/08/20 06:46:42;;;;;;;11.52;8.38;;;17.70;84.50;;;;;;4989314;28;20393;-75
2021/08/20 06:49:08;;;;;;;16.70;10.40;;;17.90;84.40;;;;;;4987980;28;20386;-75
2021/08/20 06:51:34;;;;;;;13.10;9.55;;;18.00;84.10;;;;;;4987876;28;20101;-75
2021/08/20 06:54:00;;;;;;;12.18;9.45;;;18.10;83.70;;;;;;4988174;28;20026;-75
2021/08/20 06:56:25;;;;;;;10.30;8.05;;;18.20;83.50;;;;;;4987144;28;20030;-74
2021/08/20 06:58:51;;;;;;;9.88;7.88;;;18.20;83.50;;;;;;4980062;28;20034;-74
2021/08/20 07:01:17;;;;;;;9.20;7.30;;;18.30;83.40;;;;;;4983753;28;20165;-74
2021/08/20 07:03:43;;;;;;;11.93;9.20;;;18.40;83.30;;;;;;4984777;28;20022;-74
2021/08/20 07:06:09;;;;;;;14.98;10.30;;;18.50;83.00;;;;;;4982747;28;20019;-74
2021/08/20 07:08:35;;;;;;;9.32;6.60;;;18.40;83.00;;;;;;4982452;28;20019;-74
2021/08/20 07:11:00;;;;;;;12.90;9.75;;;18.30;83.20;;;;;;4983140;28;20402;-74
2021/08/20 07:13:26;;;;;;;10.32;7.75;;;18.30;83.30;;;;;;4990941;28;20076;-77
2021/08/20 07:15:51;;;;;;;10.50;7.47;;;18.30;83.30;;;;;;4986404;28;20038;-77
2021/08/20 07:18:17;;;;;;;9.07;6.88;;;18.40;83.30;;;;;;4988798;28;20045;-75
2021/08/20 07:20:42;;;;;;;10.95;7.93;;;18.40;83.10;;;;;;4987896;28;20120;-76
2021/08/20 07:23:08;;;;;;;10.82;8.30;;;18.50;83.20;;;;;;4990829;28;20029;-76
2021/08/20 07:25:33;;;;;;;11.60;8.10;;;18.50;83.10;;;;;;4989321;28;20485;-74
2021/08/20 07:27:59;;;;;;;10.38;7.95;;;18.60;83.00;;;;;;4984604;28;20030;-76
2021/08/20 07:30:25;;;;;;;9.43;6.88;;;18.70;82.80;;;;;;4978379;28;20037;-76
2021/08/20 07:32:50;;;;;;;8.82;6.97;;;18.70;82.60;;;;;;4987295;28;20050;-76
2021/08/20 07:35:16;;;;;;;9.75;7.70;;;18.80;82.60;;;;;;4976349;28;20037;-76
2021/08/20 07:37:42;;;;;;;12.00;9.35;;;18.70;82.60;;;;;;4977978;28;20030;-75
2021/08/20 07:40:09;;;;;;;9.82;7.50;;;18.80;82.70;;;;;;4981305;28;20033;-76
2021/08/20 07:42:35;;;;;;;9.38;6.25;;;18.80;82.80;;;;;;4977978;28;20490;-76
2021/08/20 07:45:01;;;;;;;8.93;6.80;;;18.80;82.80;;;;;;4983016;28;20022;-76
2021/08/20 07:47:27;;;;;;;11.38;8.30;;;18.90;82.70;;;;;;4980609;28;20027;-76
2021/08/20 07:49:52;;;;;;;13.43;9.88;;;18.90;82.70;;;;;;4981592;28;20026;-76
2021/08/20 07:52:18;;;;;;;8.82;6.47;;;18.90;82.70;;;;;;4979801;28;20684;-76
2021/08/20 07:54:43;;;;;;;7.45;6.20;;;19.00;82.70;;;;;;4980746;28;20497;-78
2021/08/20 07:57:09;;;;;;;11.77;9.23;;;19.00;82.60;;;;;;4983163;28;20030;-75
2021/08/20 07:59:35;;;;;;;7.13;5.88;;;19.10;82.60;;;;;;4983349;28;20077;-77
2021/08/20 08:02:00;;;;;;;7.70;6.05;;;19.20;82.50;;;;;;4984919;28;20042;-75
2021/08/20 08:04:26;;;;;;;9.75;7.97;;;19.30;82.30;;;;;;4984302;28;20061;-77
2021/08/20 08:06:52;;;;;;;9.63;7.85;;;19.40;82.00;;;;;;4980166;28;20062;-75
2021/08/20 08:09:17;;;;;;;9.30;7.82;;;19.40;81.90;;;;;;4980923;28;20034;-74
2021/08/20 08:11:43;;;;;;;10.13;7.93;;;19.50;81.80;;;;;;4980035;28;20474;-75
2021/08/20 08:14:09;;;;;;;7.03;5.82;;;19.60;81.80;;;;;;4987748;28;20052;-76
2021/08/20 08:16:36;;;;;;;7.57;6.20;;;19.60;81.60;;;;;;4983568;28;20069;-75
2021/08/20 08:19:04;;;;;;;9.55;7.40;;;19.60;81.50;;;;;;4983538;28;20385;-75
2021/08/20 08:21:30;;;;;;;7.45;6.32;;;19.70;81.50;;;;;;4988010;28;20045;-76
2021/08/20 08:23:57;;;;;;;7.78;6.05;;;19.70;81.40;;;;;;4981889;28;20034;-75
2021/08/20 08:26:24;;;;;;;7.45;6.38;;;19.70;81.50;;;;;;4985836;28;20069;-75
2021/08/20 08:28:54;;;;;;;10.00;7.72;;;19.80;81.40;;;;;;4981997;28;20398;-76
2021/08/20 08:31:23;;;;;;;8.80;7.80;;;19.80;81.30;;;;;;4985791;28;20065;-76
2021/08/20 08:33:50;;;;;;;8.93;7.70;;;19.80;81.10;;;;;;4981578;28;20441;-75
2021/08/20 08:36:15;;;;;;;8.68;6.80;;;20.10;81.20;;;;;;4984267;28;20041;-75
2021/08/20 08:38:41;;;;;;;9.85;8.18;;;20.40;80.40;;;;;;4989362;28;20034;-76
2021/08/20 08:41:06;;;;;;;8.95;7.88;;;20.40;79.80;;;;;;4992212;28;20110;-74
2021/08/20 08:43:32;;;;;;;9.55;7.70;;;20.40;79.70;;;;;;4982300;28;20038;-76
2021/08/20 08:46:03;;;;;;;11.00;8.63;;;20.40;79.80;;;;;;4984084;28;20018;-76
2021/08/20 08:48:30;;;;;;;10.75;9.20;;;20.40;79.60;;;;;;4980276;28;20109;-75
2021/08/20 08:50:58;;;;;;;8.52;7.55;;;20.40;79.60;;;;;;4983692;28;20100;-74
2021/08/20 08:53:24;;;;;;;9.10;7.07;;;20.30;79.70;;;;;;4983760;28;20077;-76
2021/08/20 08:55:49;;;;;;;9.55;6.90;;;20.30;79.80;;;;;;4983742;28;20482;-75
2021/08/20 08:58:15;;;;;;;10.20;9.18;;;20.30;79.80;;;;;;4985044;28;20064;-75
2021/08/20 09:00:41;;;;;;;9.38;7.80;;;20.40;79.80;;;;;;4986004;28;20420;-76
2021/08/20 09:03:07;;;;;;;8.15;6.72;;;20.60;79.60;;;;;;4984462;28;20065;-77
2021/08/20 09:05:45;;;;;;;7.53;6.60;;;20.80;79.10;;;;;;4987309;28;21311;-77
2021/08/20 09:08:19;;;;;;;7.13;6.07;;;20.90;78.80;;;;;;4987934;28;20031;-77
2021/08/20 09:10:58;;;;;;;7.32;6.50;;;20.90;78.60;;;;;;4996251;28;20049;-76
2021/08/20 09:13:25;;;;;;;8.27;7.28;;;20.80;78.50;;;;;;4983238;28;20026;-75
2021/08/20 09:16:10;;;;;;;7.28;6.50;;;20.70;78.70;;;;;;4985662;28;20033;-76
2021/08/20 09:18:36;;;;;;;8.25;7.32;;;20.70;78.80;;;;;;4986541;28;20039;-75
2021/08/20 09:21:02;;;;;;;10.05;8.98;;;20.70;78.60;;;;;;4983059;28;20053;-75
2021/08/20 09:23:29;;;;;;;7.55;6.85;;;20.70;78.20;;;;;;4987643;28;20109;-76
2021/08/20 09:25:56;;;;;;;7.72;6.53;;;20.80;78.20;;;;;;4983056;28;20038;-75
2021/08/20 09:28:28;;;;;;;5.45;4.90;;;20.80;78.10;;;;;;4988321;28;20100;-75
2021/08/20 09:30:57;;;;;;;6.22;5.18;;;20.90;78.10;;;;;;4982368;28;20509;-74
2021/08/20 09:33:28;;;;;;;5.72;5.10;;;21.00;78.00;;;;;;4988634;28;20489;-74
2021/08/20 09:36:06;;;;;;;8.57;7.25;;;21.10;77.90;;;;;;4983072;28;20054;-74
2021/08/20 09:38:54;;;;;;;8.77;7.18;;;21.10;77.50;;;;;;4986799;28;20069;-76
2021/08/20 09:41:29;;;;;;;6.38;5.32;;;21.10;77.50;;;;;;4982486;28;20034;-74
2021/08/20 09:43:56;;;;;;;6.72;6.03;;;21.10;77.20;;;;;;4991447;28;20419;-75
2021/08/20 09:46:23;;;;;;;5.75;4.95;;;21.20;77.20;;;;;;4984281;28;20021;-75
2021/08/20 09:48:49;;;;;;;7.82;6.82;;;21.40;76.90;;;;;;4985943;28;20035;-75
2021/08/20 09:51:34;;;;;;;8.35;6.97;;;21.60;76.40;;;;;;4985070;28;20042;-76
2021/08/20 09:54:01;;;;;;;6.32;5.68;;;21.80;75.70;;;;;;4983977;28;20031;-76
2021/08/20 09:56:30;;;;;;;7.30;6.13;;;21.80;75.50;;;;;;4988598;28;20022;-75
2021/08/20 09:58:58;;;;;;;6.90;5.93;;;21.80;75.00;;;;;;4984006;28;20030;-75
2021/08/20 10:01:27;;;;;;;6.03;5.40;;;21.80;75.00;;;;;;4986777;28;20108;-76
2021/08/20 10:03:56;;;;;;;5.78;4.85;;;21.90;75.00;;;;;;4998543;28;20034;-75
2021/08/20 10:06:24;;;;;;;7.32;6.25;;;21.90;74.90;;;;;;4994152;28;20077;-75
2021/08/20 10:08:50;;;;;;;7.97;6.47;;;22.00;74.70;;;;;;4988501;28;20589;-76
2021/08/20 10:11:17;;;;;;;8.25;7.45;;;22.10;74.50;;;;;;4989292;28;20022;-75
2021/08/20 10:13:45;;;;;;;9.05;8.07;;;22.20;73.60;;;;;;4991524;28;20036;-76
2021/08/20 10:16:12;;;;;;;6.30;5.68;;;22.10;72.40;;;;;;4990740;28;20413;-75
2021/08/20 10:18:38;;;;;;;6.72;6.03;;;22.20;72.90;;;;;;4984706;28;20065;-76
2021/08/20 10:21:04;;;;;;;5.18;4.43;;;22.20;72.80;;;;;;4986497;28;20635;-75
2021/08/20 10:23:33;;;;;;;6.82;5.50;;;22.30;72.90;;;;;;4991531;28;20056;-75
2021/08/20 10:25:59;;;;;;;7.15;5.75;;;22.30;72.60;;;;;;4992674;28;20030;-75
2021/08/20 10:28:25;;;;;;;6.13;5.30;;;22.30;72.50;;;;;;4986613;28;20018;-76
2021/08/20 10:30:52;;;;;;;6.55;5.82;;;22.30;72.40;;;;;;4991946;28;20108;-75
2021/08/20 10:33:33;;;;;;;7.18;5.80;;;22.40;72.10;;;;;;4991317;28;20030;-76
2021/08/20 10:36:00;;;;;;;5.13;4.10;;;22.50;71.70;;;;;;4999010;28;20035;-75
2021/08/20 10:38:38;;;;;;;5.47;4.40;;;22.70;71.60;;;;;;4985869;28;20050;-74
2021/08/20 10:41:21;;;;;;;6.07;5.10;;;22.90;71.10;;;;;;4995932;28;20022;-74
2021/08/20 10:44:09;;;;;;;6.15;5.05;;;23.00;70.40;;;;;;4992016;28;20409;-74
2021/08/20 10:46:36;;;;;;;6.22;4.85;;;23.00;70.30;;;;;;4980661;28;20096;-72
2021/08/20 10:51:55;;;;;;;5.20;4.20;;;23.10;70.30;;;;;;4986209;28;20038;-74
2021/08/20 10:54:41;;;;;;;;;;;23.00;69.80;;;;;;4987595;28;22128;-76
2021/08/20 10:57:08;;;;;;;4.50;3.58;;;23.00;70.10;;;;;;4990432;28;19910;-74
2021/08/20 10:59:54;;;;;;;4.13;3.72;;;22.90;70.30;;;;;;4993308;28;20397;-74
2021/08/20 11:02:23;;;;;;;4.57;3.78;;;22.90;70.10;;;;;;5001637;28;20395;-76
2021/08/20 11:04:59;;;;;;;4.30;3.60;;;22.80;70.30;;;;;;4987110;28;20038;-75
2021/08/20 11:07:43;;;;;;;3.88;2.85;;;22.80;70.20;;;;;;4989755;28;20030;-76
2021/08/20 11:10:08;;;;;;;4.40;3.75;;;22.90;70.30;;;;;;4984467;28;20049;-76
2021/08/20 11:13:00;;;;;;;7.20;5.80;;;23.10;69.90;;;;;;4985230;28;20486;-75
2021/08/20 11:15:30;;;;;;;4.43;3.40;;;23.10;68.30;;;;;;4988441;28;20031;-76
2021/08/20 11:17:55;;;;;;;4.18;3.42;;;23.00;68.70;;;;;;4985553;28;20033;-74
2021/08/20 11:20:38;;;;;;;4.22;3.22;;;23.00;68.90;;;;;;4984009;28;20113;-74
2021/08/20 11:23:12;;;;;;;4.70;3.60;;;23.20;68.80;;;;;;4984039;28;20042;-77
2021/08/20 11:25:42;;;;;;;4.05;3.10;;;23.30;68.10;;;;;;4991030;28;20033;-77
2021/08/20 11:28:08;;;;;;;3.00;2.38;;;23.30;67.30;;;;;;4987036;28;20030;-76
2021/08/20 11:30:39;;;;;;;2.63;2.05;;;23.40;67.10;;;;;;4983343;28;20018;-77
2021/08/20 11:33:16;;;;;;;1.90;1.70;;;23.50;66.70;;;;;;4989953;28;20113;-73
2021/08/20 11:35:45;;;;;;;2.03;1.60;;;23.80;66.20;;;;;;4982829;28;20026;-75
2021/08/20 11:38:10;;;;;;;3.30;2.38;;;24.00;66.10;;;;;;4992176;28;20030;-75
2021/08/20 11:40:50;;;;;;;4.60;2.67;;;23.90;64.90;;;;;;4986770;28;20429;-77
2021/08/20 11:43:16;;;;;;;4.32;3.15;;;24.00;64.80;;;;;;4990566;28;20130;-75
2021/08/20 11:45:42;;;;;;;3.33;2.50;;;23.90;64.80;;;;;;4987892;28;20018;-77
2021/08/20 11:48:08;;;;;;;3.03;2.50;;;24.00;65.40;;;;;;4989748;28;20431;-76
2021/08/20 11:50:34;;;;;;;3.33;2.90;;;24.00;64.60;;;;;;4984735;28;20033;-76
2021/08/20 11:53:00;;;;;;;3.72;2.97;;;24.00;64.40;;;;;;4981722;28;20914;-77
2021/08/20 11:55:28;;;;;;;3.35;2.88;;;23.90;64.00;;;;;;4987793;28;20031;-77
2021/08/20 11:57:56;;;;;;;3.08;2.50;;;24.10;63.90;;;;;;4983962;28;20026;-77
2021/08/20 12:00:35;;;;;;;2.55;2.17;;;24.20;63.80;;;;;;4987911;28;20023;-75
2021/08/20 12:03:10;;;;;;;2.72;2.30;;;24.50;63.60;;;;;;4991007;28;20046;-76
2021/08/20 12:05:36;;;;;;;3.47;2.58;;;24.60;63.00;;;;;;4995210;28;20056;-77
2021/08/20 12:08:16;;;;;;;2.20;2.00;;;24.70;62.30;;;;;;4996404;28;20672;-76
2021/08/20 12:10:43;;;;;;;3.10;2.50;;;24.70;62.50;;;;;;4987859;28;20117;-76
2021/08/20 12:13:13;;;;;;;3.10;2.58;;;24.70;62.10;;;;;;4987397;28;20037;-76
2021/08/20 12:15:40;;;;;;;3.20;2.85;;;24.80;62.20;;;;;;4976339;28;20038;-76
2021/08/20 12:18:25;;;;;;;2.83;2.58;;;25.00;61.90;;;;;;4984019;28;20105;-75
2021/08/20 12:20:51;;;;;;;3.78;2.88;;;25.20;61.70;;;;;;4981059;28;20029;-76
2021/08/20 12:23:17;;;;;;;3.53;2.92;;;25.30;61.50;;;;;;4981837;28;20513;-76
2021/08/20 12:25:43;;;;;;;3.88;2.92;;;25.50;61.20;;;;;;4978839;28;20029;-77
2021/08/20 12:28:19;;;;;;;3.92;2.85;;;25.60;60.80;;;;;;4984579;28;20034;-77
2021/08/20 12:30:46;;;;;;;4.20;3.63;;;25.70;60.60;;;;;;4979586;28;20031;-77
2021/08/20 12:33:12;;;;;;;5.22;4.50;;;25.70;60.40;;;;;;4985114;28;20061;-76
2021/08/20 12:35:48;;;;;;;4.38;3.97;;;25.70;59.40;;;;;;4984194;28;20537;-74
2021/08/20 12:38:21;;;;;;;4.05;3.47;;;25.90;59.80;;;;;;4981099;28;20034;-76
2021/08/20 12:40:54;;;;;;;5.13;3.63;;;25.90;59.70;;;;;;4981982;28;20026;-75
2021/08/20 12:43:43;;;;;;;4.40;3.50;;;26.10;59.50;;;;;;4981620;28;20410;-75